createdAt,value
2017-10-27T00:03:54.953Z,62.00
2017-10-27T00:08:55.925Z,55.07
2017-10-27T00:13:57.637Z,65.30
2017-10-27T00:18:58.607Z,62.77
2017-10-27T00:24:00.310Z,59.73
2017-10-27T00:29:01.342Z,53.10
2017-10-27T00:34:02.314Z,59.93
2017-10-27T00:39:03.325Z,63.67
2017-10-27T00:44:04.302Z,54.93
2017-10-27T00:49:05.286Z,59.10
2017-10-27T00:54:06.269Z,57.57
2017-10-27T00:59:07.245Z,58.17
2017-10-27T01:04:08.234Z,54.10
2017-10-27T01:09:09.243Z,65.93
2017-10-27T01:14:10.942Z,56.73
2017-10-27T01:19:12.635Z,60.43
2017-10-27T01:24:14.330Z,55.30
2017-10-27T01:29:16.030Z,46.57
2017-10-27T01:34:17.014Z,56.30
2017-10-27T01:39:18.715Z,50.30
2017-10-27T01:44:20.424Z,56.83
2017-10-27T01:49:21.389Z,63.13
2017-10-27T01:54:23.090Z,58.27
2017-10-27T01:59:24.093Z,50.47
2017-10-27T02:04:25.046Z,57.37
2017-10-27T02:09:26.746Z,53.00
2017-10-27T02:14:28.493Z,55.53
2017-10-27T02:19:29.468Z,47.83
2017-10-27T02:24:30.446Z,53.80
2017-10-27T02:29:31.417Z,59.67
2017-10-27T02:34:32.381Z,62.47
2017-10-27T02:39:34.095Z,49.03
2017-10-27T02:44:35.078Z,51.63
2017-10-27T02:49:36.062Z,54.07
2017-10-27T02:54:37.073Z,52.27
2017-10-27T02:59:38.062Z,52.10
2017-10-27T03:04:39.059Z,61.37
2017-10-27T03:09:40.074Z,48.23
2017-10-27T03:14:41.778Z,56.43
2017-10-27T03:19:42.749Z,44.37
2017-10-27T03:24:44.450Z,50.30
2017-10-27T03:29:46.154Z,55.70
2017-10-27T03:34:47.119Z,50.03
2017-10-27T03:39:48.859Z,49.93
2017-10-27T03:44:49.838Z,47.93
2017-10-27T03:49:50.874Z,54.83
2017-10-27T03:54:52.611Z,42.70
2017-10-27T03:59:53.582Z,49.63
2017-10-27T04:04:54.545Z,48.43
2017-10-27T04:09:56.262Z,47.03
2017-10-27T04:14:57.994Z,55.63
2017-10-27T04:19:58.985Z,47.13
2017-10-27T04:24:59.962Z,42.70
2017-10-27T04:30:00.942Z,19.77
2017-10-27T04:35:01.921Z,18.83
2017-10-27T04:40:02.927Z,20.33
2017-10-27T04:45:03.907Z,14.70
2017-10-27T04:50:04.901Z,13.73
2017-10-27T04:55:05.901Z,16.00
2017-10-27T05:00:07.625Z,13.10
2017-10-27T05:05:08.595Z,18.60
2017-10-27T05:10:10.326Z,11.90
2017-10-27T05:15:11.306Z,13.37
2017-10-27T05:20:18.330Z,16.07
2017-10-27T05:25:19.305Z,13.53
2017-10-27T05:30:20.314Z,17.73
2017-10-27T05:35:21.301Z,15.03
2017-10-27T05:40:22.263Z,17.17
2017-10-27T05:45:23.241Z,16.80
2017-10-27T05:50:24.218Z,20.47
2017-10-27T05:55:25.178Z,18.43
2017-10-27T06:00:26.154Z,18.10
2017-10-27T06:05:27.167Z,22.17
2017-10-27T06:10:28.161Z,20.43
2017-10-27T06:15:29.882Z,16.77
2017-10-27T06:20:30.869Z,17.67
2017-10-27T06:25:31.844Z,17.77
2017-10-27T06:30:32.793Z,17.40
2017-10-27T06:35:33.774Z,19.63
2017-10-27T06:40:34.734Z,15.70
2017-10-27T06:45:35.722Z,15.20
2017-10-27T06:50:36.695Z,23.30
2017-10-27T06:55:37.659Z,19.13
2017-10-27T07:00:38.626Z,16.63
2017-10-27T07:05:39.578Z,15.33
2017-10-27T07:10:41.298Z,17.63
2017-10-27T07:15:42.298Z,22.33
2017-10-27T07:20:43.285Z,17.83
2017-10-27T07:25:44.273Z,21.60
2017-10-27T07:30:45.250Z,19.37
2017-10-27T07:35:46.237Z,20.37
2017-10-27T07:40:47.214Z,18.50
2017-10-27T07:45:48.210Z,18.73
2017-10-27T07:50:49.185Z,13.43
2017-10-27T07:55:50.182Z,8.00
2017-10-27T08:00:51.166Z,4.70
2017-10-27T08:05:52.150Z,3.90
2017-10-27T08:10:53.115Z,5.57
2017-10-27T08:15:54.074Z,4.87
2017-10-27T08:20:55.038Z,6.00
2017-10-27T08:25:55.994Z,6.37
2017-10-27T08:30:56.954Z,4.47
2017-10-27T08:35:57.934Z,5.90
2017-10-27T08:40:58.921Z,4.90
2017-10-27T08:45:59.901Z,4.80
2017-10-27T08:51:00.873Z,4.73
2017-10-27T08:56:01.866Z,4.47
2017-10-27T09:01:02.843Z,3.90
2017-10-27T09:06:03.811Z,12.70
2017-10-27T09:11:04.777Z,6.57
2017-10-27T09:16:05.753Z,5.67
2017-10-27T09:21:06.734Z,6.30
2017-10-27T09:26:07.706Z,9.03
2017-10-27T09:31:08.674Z,6.87
2017-10-27T09:36:09.646Z,5.80
2017-10-27T09:41:10.622Z,6.50
2017-10-27T09:46:11.610Z,5.47
2017-10-27T09:51:12.635Z,10.23
2017-10-27T09:56:13.722Z,5.77
2017-10-27T10:01:14.842Z,6.97
2017-10-27T10:06:15.826Z,6.57
2017-10-27T10:11:16.809Z,4.20
2017-10-27T10:16:17.801Z,6.67
2017-10-27T10:21:19.533Z,3.40
2017-10-27T10:26:20.521Z,5.03
2017-10-27T10:31:21.501Z,8.73
2017-10-27T10:36:22.486Z,4.60
2017-10-27T10:41:23.634Z,4.30
2017-10-27T10:46:24.729Z,9.97
2017-10-27T10:51:26.577Z,3.97
2017-10-27T10:56:27.685Z,3.20
2017-10-27T11:01:28.867Z,2.33
2017-10-27T11:06:30.058Z,3.67
2017-10-27T11:11:31.345Z,2.13
2017-10-27T11:16:32.688Z,1.77
2017-10-27T11:21:33.714Z,4.97
2017-10-27T11:26:34.683Z,2.70
2017-10-27T11:31:35.686Z,2.83
2017-10-27T11:36:36.673Z,1.70
2017-10-27T11:41:37.653Z,3.23
2017-10-27T11:46:38.658Z,3.60
2017-10-27T11:51:39.642Z,2.90
2017-10-27T11:56:40.617Z,2.27
2017-10-27T12:01:41.610Z,3.00
2017-10-27T12:06:43.334Z,2.20
2017-10-27T12:11:44.326Z,3.10
2017-10-27T12:16:45.297Z,4.83
2017-10-27T12:21:46.282Z,5.53
2017-10-27T12:26:47.262Z,3.93
2017-10-27T12:31:48.242Z,6.03
2017-10-27T12:36:49.221Z,5.53
2017-10-27T12:41:50.202Z,3.87
2017-10-27T12:46:51.185Z,5.30
2017-10-27T12:51:52.174Z,9.50
2017-10-27T12:56:53.151Z,3.37
2017-10-27T13:01:54.149Z,2.90
2017-10-27T13:06:55.131Z,3.00
2017-10-27T13:11:56.114Z,6.03
2017-10-27T13:16:57.105Z,7.97
2017-10-27T13:21:58.081Z,3.70
2017-10-27T13:26:59.054Z,3.90
2017-10-27T13:32:00.022Z,3.33
2017-10-27T13:37:00.998Z,3.90
2017-10-27T13:42:02.702Z,4.30
2017-10-27T13:47:03.675Z,6.83
2017-10-27T13:52:05.390Z,6.07
2017-10-27T13:57:06.371Z,3.70
2017-10-27T14:02:07.344Z,7.13
2017-10-27T14:07:09.050Z,3.07
2017-10-27T14:12:10.018Z,8.90
2017-10-27T14:17:11.738Z,5.50
2017-10-27T14:22:12.710Z,5.53
2017-10-27T14:27:13.678Z,3.97
2017-10-27T14:32:15.401Z,4.77
2017-10-27T14:37:16.359Z,7.07
2017-10-27T14:42:18.053Z,8.20
2017-10-27T14:47:19.753Z,7.73
2017-10-27T14:52:36.489Z,7.30
2017-10-27T14:57:44.417Z,5.43
2017-10-27T15:02:45.446Z,10.30
2017-10-27T15:07:47.223Z,11.50
2017-10-27T15:12:48.954Z,4.17
2017-10-27T15:17:49.997Z,6.00
2017-10-27T15:22:51.086Z,6.93
2017-10-27T15:27:52.066Z,5.27
2017-10-27T15:32:53.034Z,4.50
2017-10-27T15:37:54.025Z,6.07
2017-10-27T15:42:54.997Z,10.57
2017-10-27T15:47:55.993Z,9.43
2017-10-27T15:52:56.955Z,3.53
2017-10-27T15:57:57.921Z,4.00
2017-10-27T16:02:58.902Z,4.43
2017-10-27T16:07:59.885Z,6.53
2017-10-27T16:13:00.882Z,6.60
2017-10-27T16:18:01.902Z,6.60
2017-10-27T16:23:03.638Z,5.20
2017-10-27T16:28:04.651Z,3.20
2017-10-27T16:33:05.643Z,6.50
2017-10-27T16:38:06.682Z,4.63
2017-10-27T16:43:07.678Z,2.50
2017-10-27T16:48:08.684Z,3.23
2017-10-27T16:53:09.674Z,8.33
2017-10-27T16:58:10.673Z,3.67
2017-10-27T17:03:11.662Z,3.67
2017-10-27T17:08:13.390Z,4.27
2017-10-27T17:13:14.385Z,3.60
2017-10-27T17:18:15.349Z,6.63
2017-10-27T17:23:16.309Z,4.17
2017-10-27T17:28:18.009Z,7.13
2017-10-27T17:33:19.727Z,6.17
2017-10-27T17:38:20.690Z,6.27
2017-10-27T17:43:22.385Z,2.40
2017-10-27T17:48:23.358Z,4.80
2017-10-27T17:53:25.067Z,8.40
2017-10-27T17:58:26.781Z,7.83
2017-10-27T18:03:28.495Z,13.73
2017-10-27T18:08:29.460Z,9.00
2017-10-27T18:13:31.185Z,16.40
2017-10-27T18:18:32.158Z,15.70
2017-10-27T18:23:33.125Z,16.67
2017-10-27T18:28:34.138Z,17.63
2017-10-27T18:33:35.116Z,11.77
2017-10-27T18:38:36.085Z,13.90
2017-10-27T18:43:37.059Z,16.30
2017-10-27T18:48:38.027Z,10.47
2017-10-27T18:53:39.742Z,13.10
2017-10-27T18:58:40.730Z,11.27
2017-10-27T19:03:41.781Z,9.90
2017-10-27T19:08:42.749Z,8.17
2017-10-27T19:13:43.754Z,11.23
2017-10-27T19:18:45.461Z,9.47
2017-10-27T19:23:47.177Z,10.40
2017-10-27T19:28:48.165Z,10.87
2017-10-27T19:33:49.299Z,8.87
2017-10-27T19:38:50.275Z,22.83
2017-10-27T19:43:51.245Z,11.37
2017-10-27T19:48:52.223Z,13.83
2017-10-27T19:53:53.198Z,10.43
2017-10-27T19:58:54.190Z,12.80
2017-10-27T20:03:55.178Z,7.93
2017-10-27T20:08:56.165Z,12.60
2017-10-27T20:13:57.133Z,8.77
2017-10-27T20:18:58.109Z,12.30
2017-10-27T20:23:59.086Z,7.87
2017-10-27T20:29:00.050Z,5.40
2017-10-27T20:34:01.014Z,8.00
2017-10-27T20:39:02.162Z,5.90
2017-10-27T20:44:03.889Z,6.60
2017-10-27T20:49:06.550Z,4.80
2017-10-27T20:54:07.558Z,5.93
2017-10-27T20:59:08.534Z,6.77
2017-10-27T21:04:09.623Z,19.33
2017-10-27T21:09:10.595Z,22.90
2017-10-27T21:14:11.594Z,22.03
2017-10-27T21:19:13.372Z,9.80
2017-10-27T21:24:14.362Z,12.80
2017-10-27T21:29:15.338Z,9.77
2017-10-27T21:34:16.330Z,12.87
2017-10-27T21:39:17.445Z,7.97
2017-10-27T23:08:51.145Z,8.60
2017-10-27T23:13:52.191Z,8.67
2017-10-27T23:18:53.169Z,10.90
2017-10-27T23:23:54.154Z,8.10
2017-10-27T23:28:55.338Z,13.57
2017-10-27T23:33:56.306Z,9.23
2017-10-27T23:38:58.038Z,12.07
2017-10-27T23:43:59.039Z,15.50
2017-10-27T23:49:00.006Z,9.67
2017-10-27T23:54:00.981Z,17.00
2017-10-27T23:59:01.963Z,12.77
